createdAt,value
2022-10-20T05:23:11.802Z,99.90
2022-10-20T05:25:40.169Z,99.90
2022-10-20T05:28:08.655Z,99.90
2022-10-20T05:30:37.567Z,99.90
2022-10-20T05:33:06.190Z,99.90
2022-10-20T05:35:34.124Z,99.90
2022-10-20T05:38:02.093Z,99.90
2022-10-20T05:40:31.378Z,99.90
2022-10-20T05:42:59.422Z,99.90
2022-10-20T05:45:27.345Z,99.90
2022-10-20T05:47:55.256Z,99.90
2022-10-20T05:50:23.213Z,99.90
2022-10-20T12:10:35.966Z,98.30
2022-10-20T12:13:16.600Z,86.90
2022-10-20T12:15:49.088Z,74.20
2022-10-20T12:18:25.319Z,60.80
2022-10-20T12:20:56.391Z,55.50
2022-10-20T12:24:05.730Z,55.00
2022-10-20T12:27:07.064Z,52.80
2022-10-20T12:29:56.201Z,51.80
2022-10-20T12:32:45.433Z,57.00
2022-10-20T12:35:58.551Z,68.10
2022-10-20T12:38:28.017Z,79.20
2022-10-20T12:40:59.390Z,76.40
2022-10-20T12:43:35.465Z,85.90
2022-10-20T12:46:10.224Z,83.60
2022-10-20T12:48:45.545Z,91.20
2022-10-20T12:51:26.283Z,90.90
2022-10-20T12:53:58.605Z,91.40
2022-10-20T12:56:35.608Z,93.10
2022-10-20T12:59:40.392Z,86.50
2022-10-20T13:02:32.029Z,85.00
2022-10-20T13:05:03.048Z,85.00
2022-10-20T13:08:04.541Z,82.70
2022-10-20T13:10:35.000Z,80.10
2022-10-20T13:13:48.755Z,77.20
2022-10-20T13:16:22.421Z,75.10
2022-10-20T13:18:52.633Z,70.80
2022-10-20T13:21:32.506Z,67.60
2022-10-20T13:24:05.397Z,68.60
2022-10-20T13:26:39.215Z,70.50
2022-10-20T13:29:14.345Z,62.80
2022-10-20T13:31:50.864Z,55.80
2022-10-20T13:34:26.039Z,52.60
2022-10-20T13:37:07.256Z,48.10
2022-10-20T13:39:47.424Z,44.20
2022-10-20T13:42:30.934Z,45.30
2022-10-20T13:45:06.947Z,48.60
2022-10-20T13:47:50.092Z,48.70
2022-10-20T13:50:22.176Z,50.30
2022-10-20T13:52:54.341Z,49.20
2022-10-20T13:55:24.947Z,42.30
2022-10-20T13:57:55.485Z,37.70
2022-10-20T14:00:26.064Z,34.90
2022-10-20T14:02:59.637Z,36.00
2022-10-20T14:05:29.904Z,27.90
2022-10-20T14:08:04.590Z,27.80
2022-10-20T14:10:40.099Z,26.30
2022-10-20T14:13:10.229Z,22.80
2022-10-20T14:15:38.724Z,19.70
2022-10-20T14:18:19.429Z,18.90
2022-10-20T14:20:56.689Z,15.90
2022-10-20T14:23:26.050Z,16.70
2022-10-20T14:25:54.817Z,15.90
2022-10-20T14:28:25.154Z,15.70
2022-10-20T14:30:53.640Z,14.90
2022-10-20T14:33:23.382Z,17.40
2022-10-20T14:35:54.652Z,17.60
2022-10-20T14:38:26.666Z,15.70
2022-10-20T14:40:56.939Z,15.30
2022-10-20T14:43:35.171Z,14.90
2022-10-20T14:46:04.825Z,14.70
2022-10-20T14:48:39.126Z,16.00
2022-10-20T15:04:48.942Z,26.30
2022-10-20T15:07:20.206Z,25.90
2022-10-20T16:08:23.066Z,99.90
2022-10-20T16:10:51.118Z,99.90
2022-10-20T16:13:21.116Z,99.90
2022-10-20T16:15:49.081Z,99.90
2022-10-20T16:18:17.066Z,99.90
2022-10-20T16:20:45.063Z,99.90
2022-10-20T16:23:13.085Z,99.90
2022-10-20T16:25:42.699Z,99.90
2022-10-20T16:28:11.583Z,99.90
2022-10-20T16:30:39.544Z,99.90
2022-10-20T16:33:07.830Z,99.90
2022-10-20T16:35:35.847Z,99.90
2022-10-20T16:38:03.942Z,99.90
2022-10-20T16:40:31.903Z,99.90
2022-10-20T16:43:02.386Z,99.90
2022-10-20T16:45:30.531Z,99.90
2022-10-20T16:47:58.631Z,99.90
2022-10-20T16:50:26.777Z,99.90
2022-10-20T16:52:54.843Z,99.90
2022-10-20T16:55:22.887Z,99.90
2022-10-20T16:57:51.830Z,99.90
2022-10-20T17:00:21.552Z,99.90
2022-10-20T17:02:49.480Z,99.90
2022-10-20T17:05:19.679Z,99.90
2022-10-20T17:07:47.776Z,99.90
2022-10-20T17:10:15.871Z,99.90
2022-10-20T17:12:44.382Z,99.90
2022-10-20T17:15:13.095Z,99.90
2022-10-20T17:17:42.552Z,99.90
2022-10-20T17:20:11.593Z,99.90
2022-10-20T17:22:39.839Z,99.90
